Time;durP1;ratioP1;P1;durP2;ratioP2;P2;SDS_P1;SDS_P2;PMS_P1;PMS_P2;Temp;Humidity;BMP_temperature;BMP_pressure;BME280_temperature;BME280_humidity;BME280_pressure;Samples;Min_cycle;Max_cycle;Signal;HPM_P1;HPM_P2
2021/10/23 00:02:06;;;;;;;3.47;1.63;;;;;;;;;;4538143;28;25456;-59
2021/10/23 00:04:16;;;;;;;4.50;2.00;;;;;;;;;;4537345;28;20036;-59
2021/10/23 00:06:27;;;;;;;2.70;1.57;;;;;;;;;;4538331;28;20029;-59
2021/10/23 00:08:37;;;;;;;3.77;1.63;;;;;;;;;;4535702;28;20520;-59
2021/10/23 00:10:48;;;;;;;3.37;1.83;;;;;;;;;;4539123;28;20107;-60
2021/10/23 00:12:58;;;;;;;3.70;2.03;;;;;;;;;;4520849;28;20029;-59
2021/10/23 00:15:09;;;;;;;3.23;1.60;;;;;;;;;;4525964;28;20411;-59
2021/10/23 00:17:20;;;;;;;2.85;1.80;;;;;;;;;;4536596;28;20025;-60
2021/10/23 00:19:30;;;;;;;2.90;1.77;;;;;;;;;;4536878;28;20025;-60
2021/10/23 00:21:40;;;;;;;4.07;1.93;;;;;;;;;;4538646;28;20039;-59
2021/10/23 00:23:51;;;;;;;4.70;2.10;;;;;;;;;;4524200;28;20045;-59
2021/10/23 00:26:01;;;;;;;5.10;1.83;;;;;;;;;;4536542;28;20083;-59
2021/10/23 00:28:12;;;;;;;4.43;1.83;;;;;;;;;;4534695;28;20129;-60
2021/10/23 00:30:23;;;;;;;3.10;1.63;;;;;;;;;;4539439;28;20079;-59
2021/10/23 00:32:34;;;;;;;2.60;1.60;;;;;;;;;;4536111;28;20037;-59
2021/10/23 00:34:44;;;;;;;4.80;2.08;;;;;;;;;;4535340;28;20520;-59
2021/10/23 00:36:55;;;;;;;2.63;1.70;;;;;;;;;;4539755;28;20056;-60
2021/10/23 00:39:05;;;;;;;4.53;2.00;;;;;;;;;;4539400;28;20033;-60
2021/10/23 00:41:16;;;;;;;3.20;1.80;;;;;;;;;;4537554;28;20548;-60
2021/10/23 00:43:26;;;;;;;3.20;1.73;;;;;;;;;;4536443;28;20049;-59
2021/10/23 00:45:37;;;;;;;2.97;1.70;;;;;;;;;;4538467;28;20029;-59
2021/10/23 00:47:47;;;;;;;4.87;2.07;;;;;;;;;;4539304;28;31055;-59
2021/10/23 00:49:58;;;;;;;4.67;2.10;;;;;;;;;;4538751;28;20801;-59
2021/10/23 00:52:08;;;;;;;3.93;1.93;;;;;;;;;;4520491;28;20747;-59
2021/10/23 00:54:19;;;;;;;3.10;1.70;;;;;;;;;;4533872;28;20568;-59
2021/10/23 00:56:29;;;;;;;3.50;1.73;;;;;;;;;;4519837;28;20061;-59
2021/10/23 00:58:40;;;;;;;3.40;1.77;;;;;;;;;;4536445;28;33525;-59
2021/10/23 01:00:50;;;;;;;4.77;2.07;;;;;;;;;;4527120;28;20045;-59
2021/10/23 01:03:01;;;;;;;2.50;1.67;;;;;;;;;;4535427;28;20052;-59
2021/10/23 01:05:11;;;;;;;4.57;2.20;;;;;;;;;;4536733;28;20614;-59
2021/10/23 01:07:22;;;;;;;4.40;2.23;;;;;;;;;;4535689;28;20124;-59
2021/10/23 01:09:37;;;;;;;3.43;1.87;;;;;;;;;;4540211;28;20053;-59
2021/10/23 01:11:48;;;;;;;4.13;2.13;;;;;;;;;;4523478;28;20156;-59
2021/10/23 01:13:58;;;;;;;4.03;1.88;;;;;;;;;;4523589;28;20025;-59
2021/10/23 01:16:09;;;;;;;3.03;1.80;;;;;;;;;;4535683;28;20799;-59
2021/10/23 01:18:19;;;;;;;4.07;2.20;;;;;;;;;;4537444;28;24102;-59
2021/10/23 01:20:31;;;;;;;4.17;1.53;;;;;;;;;;4521009;28;20088;-59
2021/10/23 01:22:41;;;;;;;3.72;1.83;;;;;;;;;;4511046;28;20074;-59
2021/10/23 01:24:52;;;;;;;3.67;2.07;;;;;;;;;;4534981;28;20064;-59
2021/10/23 01:27:02;;;;;;;3.43;1.77;;;;;;;;;;4536714;28;20040;-60
2021/10/23 01:29:15;;;;;;;3.93;1.90;;;;;;;;;;4504887;28;20037;-61
2021/10/23 01:31:29;;;;;;;4.95;1.95;;;;;;;;;;4521332;28;20038;-59
2021/10/23 01:33:40;;;;;;;5.13;1.88;;;;;;;;;;4534623;28;20029;-58
2021/10/23 01:35:50;;;;;;;4.30;2.10;;;;;;;;;;4538561;28;20032;-59
2021/10/23 01:38:00;;;;;;;3.13;1.70;;;;;;;;;;4520585;28;20029;-59
2021/10/23 01:40:15;;;;;;;3.70;2.13;;;;;;;;;;4521138;28;24249;-59
2021/10/23 01:42:25;;;;;;;3.53;1.92;;;;;;;;;;4520726;28;20525;-59
2021/10/23 01:44:36;;;;;;;4.57;2.10;;;;;;;;;;4535699;28;20028;-59
2021/10/23 01:46:46;;;;;;;4.63;1.90;;;;;;;;;;4537321;28;20037;-60
2021/10/23 01:48:56;;;;;;;4.47;1.93;;;;;;;;;;4535048;28;20748;-59
2021/10/23 01:51:12;;;;;;;3.50;1.80;;;;;;;;;;4537134;28;20075;-59
2021/10/23 01:53:23;;;;;;;3.83;2.10;;;;;;;;;;4522022;28;20650;-59
2021/10/23 01:55:33;;;;;;;4.82;2.20;;;;;;;;;;4522126;28;20064;-59
2021/10/23 01:57:44;;;;;;;3.83;2.20;;;;;;;;;;4525084;28;20045;-59
2021/10/23 01:59:54;;;;;;;4.73;2.40;;;;;;;;;;4506216;28;20099;-59
2021/10/23 02:02:05;;;;;;;5.33;2.70;;;;;;;;;;4535997;28;20132;-59
2021/10/23 02:04:15;;;;;;;3.97;2.00;;;;;;;;;;4535303;28;20560;-59
2021/10/23 02:06:26;;;;;;;5.00;2.40;;;;;;;;;;4535005;28;20064;-59
2021/10/23 02:08:37;;;;;;;3.97;2.00;;;;;;;;;;4535873;28;20823;-59
2021/10/23 02:10:47;;;;;;;3.72;2.30;;;;;;;;;;4536754;28;20665;-61
2021/10/23 02:12:58;;;;;;;5.43;2.40;;;;;;;;;;4524327;28;20068;-62
2021/10/23 02:15:09;;;;;;;3.97;2.30;;;;;;;;;;4528082;28;20037;-59
2021/10/23 02:17:20;;;;;;;3.93;2.20;;;;;;;;;;4521331;28;20089;-59
2021/10/23 02:19:30;;;;;;;5.53;2.20;;;;;;;;;;4535712;28;20063;-59
2021/10/23 02:21:40;;;;;;;3.80;1.80;;;;;;;;;;4533187;28;20104;-59
2021/10/23 02:23:51;;;;;;;3.73;2.60;;;;;;;;;;4519339;28;20042;-59
2021/10/23 02:26:01;;;;;;;5.50;2.77;;;;;;;;;;4536989;28;20040;-60
2021/10/23 02:28:12;;;;;;;4.50;2.07;;;;;;;;;;4536227;28;20029;-59
2021/10/23 02:30:22;;;;;;;4.17;2.30;;;;;;;;;;4536147;28;20039;-59
2021/10/23 02:32:33;;;;;;;5.00;2.40;;;;;;;;;;4538201;28;20025;-59
2021/10/23 02:34:44;;;;;;;3.58;2.20;;;;;;;;;;4523671;28;20040;-59
2021/10/23 02:36:55;;;;;;;3.77;2.10;;;;;;;;;;4537018;28;20390;-59
2021/10/23 02:39:05;;;;;;;4.97;2.40;;;;;;;;;;4534733;28;20130;-59
2021/10/23 02:41:17;;;;;;;4.77;2.30;;;;;;;;;;4533047;28;20124;-59
2021/10/23 02:43:27;;;;;;;3.78;2.40;;;;;;;;;;4535634;28;20127;-59
2021/10/23 02:45:38;;;;;;;3.77;2.27;;;;;;;;;;4524850;28;20036;-59
2021/10/23 02:47:48;;;;;;;4.63;2.60;;;;;;;;;;4519046;28;20041;-59
2021/10/23 02:49:59;;;;;;;6.73;2.70;;;;;;;;;;4538014;28;20112;-59
2021/10/23 02:52:10;;;;;;;5.43;2.77;;;;;;;;;;4524064;28;24863;-59
2021/10/23 02:54:20;;;;;;;5.18;2.63;;;;;;;;;;4520572;28;21202;-59
2021/10/23 02:56:31;;;;;;;6.73;2.93;;;;;;;;;;4534090;28;36320;-59
2021/10/23 02:58:41;;;;;;;5.77;2.80;;;;;;;;;;4534800;28;20112;-58
2021/10/23 03:00:51;;;;;;;5.87;2.80;;;;;;;;;;4538102;28;20572;-59
2021/10/23 03:03:03;;;;;;;5.20;2.58;;;;;;;;;;4522946;28;20642;-59
2021/10/23 03:05:14;;;;;;;5.43;2.90;;;;;;;;;;4537431;28;20064;-60
2021/10/23 03:07:24;;;;;;;4.50;2.43;;;;;;;;;;4535225;28;20100;-59
2021/10/23 03:09:35;;;;;;;5.20;2.73;;;;;;;;;;4524795;28;20422;-59
2021/10/23 03:11:45;;;;;;;5.30;2.60;;;;;;;;;;4525757;28;20035;-59
2021/10/23 03:13:56;;;;;;;3.93;2.30;;;;;;;;;;4526728;28;20141;-59
2021/10/23 03:16:08;;;;;;;4.97;2.80;;;;;;;;;;4536666;28;20026;-59
2021/10/23 03:18:19;;;;;;;3.63;2.80;;;;;;;;;;4522511;28;20084;-59
2021/10/23 03:20:29;;;;;;;;;;;;;;;;;;4521254;28;20040;-59
2021/10/23 03:22:40;;;;;;;4.38;2.45;;;;;;;;;;4537538;28;20983;-59
2021/10/23 03:24:51;;;;;;;4.40;2.63;;;;;;;;;;4539462;28;20037;-59
2021/10/23 03:27:02;;;;;;;5.53;2.75;;;;;;;;;;4527346;28;20791;-59
2021/10/23 03:29:12;;;;;;;4.03;2.50;;;;;;;;;;4538107;28;20036;-59
2021/10/23 03:31:23;;;;;;;4.23;3.10;;;;;;;;;;4517856;28;20662;-59
2021/10/23 03:33:33;;;;;;;3.47;2.47;;;;;;;;;;4538652;28;20115;-59
2021/10/23 03:35:44;;;;;;;5.80;3.07;;;;;;;;;;4539281;28;30887;-59
2021/10/23 03:37:54;;;;;;;5.93;2.80;;;;;;;;;;4540566;28;20482;-59
2021/10/23 03:40:06;;;;;;;5.20;3.20;;;;;;;;;;4540963;28;20108;-59
2021/10/23 03:42:17;;;;;;;6.53;3.17;;;;;;;;;;4539745;28;20053;-59
2021/10/23 03:44:27;;;;;;;5.77;3.50;;;;;;;;;;4537926;28;20029;-59
2021/10/23 03:46:38;;;;;;;5.70;3.27;;;;;;;;;;4538175;28;20040;-59
2021/10/23 03:48:48;;;;;;;7.17;3.57;;;;;;;;;;4523742;28;20038;-59
2021/10/23 03:50:58;;;;;;;5.90;3.47;;;;;;;;;;4542172;28;20130;-59
2021/10/23 03:53:09;;;;;;;6.03;3.37;;;;;;;;;;4536784;28;20174;-59
2021/10/23 03:55:20;;;;;;;6.67;4.03;;;;;;;;;;4539105;28;20032;-59
2021/10/23 03:57:30;;;;;;;6.67;3.90;;;;;;;;;;4537061;28;20259;-59
2021/10/23 03:59:40;;;;;;;7.10;4.10;;;;;;;;;;4535695;28;20119;-59
2021/10/23 04:01:51;;;;;;;8.10;4.77;;;;;;;;;;4539015;28;20524;-59
2021/10/23 04:04:02;;;;;;;7.50;4.80;;;;;;;;;;4537091;28;20036;-59
2021/10/23 04:06:14;;;;;;;8.63;5.37;;;;;;;;;;4525799;28;20516;-59
2021/10/23 04:08:24;;;;;;;7.78;5.18;;;;;;;;;;4536907;28;20044;-59
2021/10/23 04:10:35;;;;;;;8.10;5.32;;;;;;;;;;4523658;28;20037;-59
2021/10/23 04:12:46;;;;;;;10.50;6.40;;;;;;;;;;4528230;28;20106;-59
2021/10/23 04:14:57;;;;;;;10.23;6.17;;;;;;;;;;4538454;28;22450;-59
2021/10/23 04:17:07;;;;;;;10.85;6.55;;;;;;;;;;4538424;28;20036;-59
2021/10/23 04:19:18;;;;;;;10.27;6.60;;;;;;;;;;4540119;28;20038;-59
2021/10/23 04:21:28;;;;;;;9.23;5.90;;;;;;;;;;4532617;28;27044;-59
2021/10/23 04:23:39;;;;;;;10.35;6.32;;;;;;;;;;4538501;28;20127;-59
2021/10/23 04:25:49;;;;;;;8.83;5.20;;;;;;;;;;4511083;28;20042;-59
2021/10/23 04:28:00;;;;;;;9.70;6.00;;;;;;;;;;4536255;28;20041;-59
2021/10/23 04:30:11;;;;;;;8.70;6.03;;;;;;;;;;4534373;28;20033;-59
2021/10/23 04:32:21;;;;;;;10.97;6.20;;;;;;;;;;4536551;28;20190;-59
2021/10/23 04:34:31;;;;;;;10.53;6.80;;;;;;;;;;4537302;28;32425;-59
2021/10/23 04:36:43;;;;;;;9.77;6.20;;;;;;;;;;4536828;28;20048;-59
2021/10/23 04:38:53;;;;;;;8.90;5.80;;;;;;;;;;4537571;28;20231;-59
2021/10/23 04:41:04;;;;;;;10.00;6.30;;;;;;;;;;4538269;28;20110;-59
2021/10/23 04:43:14;;;;;;;9.43;6.43;;;;;;;;;;4521664;28;20041;-59
2021/10/23 04:45:25;;;;;;;9.37;5.73;;;;;;;;;;4537745;28;20280;-59
2021/10/23 04:47:35;;;;;;;9.77;6.17;;;;;;;;;;4535806;28;20763;-59
2021/10/23 04:49:46;;;;;;;10.80;6.60;;;;;;;;;;4537880;28;20043;-59
2021/10/23 04:51:56;;;;;;;9.80;6.43;;;;;;;;;;4538384;28;20034;-59
2021/10/23 04:54:07;;;;;;;9.17;6.47;;;;;;;;;;4523086;28;20116;-59
2021/10/23 04:56:18;;;;;;;9.47;6.43;;;;;;;;;;4528085;28;20512;-59
2021/10/23 04:58:28;;;;;;;9.60;6.85;;;;;;;;;;4537100;28;20037;-59
2021/10/23 05:00:39;;;;;;;9.53;6.60;;;;;;;;;;4538655;28;20056;-59
2021/10/23 05:02:49;;;;;;;10.30;6.70;;;;;;;;;;4534871;28;20155;-59
2021/10/23 05:05:00;;;;;;;9.97;6.83;;;;;;;;;;4535259;28;20118;-59
2021/10/23 05:07:10;;;;;;;10.67;7.13;;;;;;;;;;4536393;28;20029;-59
2021/10/23 05:09:20;;;;;;;9.40;6.60;;;;;;;;;;4536975;28;20036;-59
2021/10/23 05:11:31;;;;;;;8.93;5.20;;;;;;;;;;4535771;28;20838;-59
2021/10/23 05:13:42;;;;;;;8.57;5.60;;;;;;;;;;4536973;28;20029;-59
2021/10/23 05:15:52;;;;;;;9.93;5.60;;;;;;;;;;4536790;28;20037;-59
2021/10/23 05:18:02;;;;;;;8.47;4.80;;;;;;;;;;4524633;28;20033;-59
2021/10/23 05:20:14;;;;;;;8.47;5.47;;;;;;;;;;4523873;28;21143;-59
2021/10/23 05:22:24;;;;;;;7.18;4.70;;;;;;;;;;4524939;28;20168;-59
2021/10/23 05:24:35;;;;;;;8.33;5.13;;;;;;;;;;4526297;28;20561;-59
2021/10/23 05:26:45;;;;;;;7.83;5.50;;;;;;;;;;4536828;28;20037;-59
2021/10/23 05:28:55;;;;;;;8.43;5.40;;;;;;;;;;4522500;28;23945;-59
2021/10/23 05:31:06;;;;;;;8.20;4.93;;;;;;;;;;4534932;28;35804;-59
2021/10/23 05:33:17;;;;;;;9.00;5.33;;;;;;;;;;4537499;28;20033;-59
2021/10/23 05:35:27;;;;;;;8.38;5.13;;;;;;;;;;4535154;28;20315;-59
2021/10/23 05:37:38;;;;;;;7.80;4.87;;;;;;;;;;4511744;28;20042;-59
2021/10/23 05:39:48;;;;;;;7.87;5.23;;;;;;;;;;4535001;28;31984;-59
2021/10/23 05:41:59;;;;;;;7.67;5.20;;;;;;;;;;4534569;28;21837;-59
2021/10/23 05:44:09;;;;;;;8.30;5.23;;;;;;;;;;4536288;28;20087;-59
2021/10/23 05:46:19;;;;;;;7.87;5.20;;;;;;;;;;4535769;28;20662;-59
2021/10/23 05:48:30;;;;;;;9.60;5.13;;;;;;;;;;4535354;28;20033;-59
2021/10/23 05:50:40;;;;;;;8.33;5.10;;;;;;;;;;4535767;28;25762;-59
2021/10/23 05:52:51;;;;;;;8.43;4.90;;;;;;;;;;4519895;28;20040;-59
2021/10/23 05:55:02;;;;;;;8.30;5.27;;;;;;;;;;4536566;28;20036;-59
2021/10/23 05:57:13;;;;;;;8.25;5.35;;;;;;;;;;4520574;28;20147;-59
2021/10/23 05:59:23;;;;;;;8.20;4.93;;;;;;;;;;4535649;28;32418;-59
2021/10/23 06:01:34;;;;;;;6.33;4.80;;;;;;;;;;4518702;28;20088;-60
2021/10/23 06:03:44;;;;;;;8.70;4.87;;;;;;;;;;4536321;28;20068;-59
2021/10/23 06:05:54;;;;;;;8.17;5.00;;;;;;;;;;4536091;28;20036;-59
2021/10/23 06:08:05;;;;;;;7.27;4.77;;;;;;;;;;4521054;28;20785;-59
2021/10/23 06:10:15;;;;;;;8.40;4.90;;;;;;;;;;4536586;28;20033;-59
2021/10/23 06:12:26;;;;;;;6.87;4.73;;;;;;;;;;4535517;28;30260;-60
2021/10/23 06:14:37;;;;;;;7.23;4.87;;;;;;;;;;4535771;28;20451;-59
2021/10/23 06:16:47;;;;;;;7.30;5.17;;;;;;;;;;4536731;28;20087;-59
2021/10/23 06:18:58;;;;;;;8.03;5.10;;;;;;;;;;4535803;28;20545;-59
2021/10/23 06:21:08;;;;;;;7.47;4.83;;;;;;;;;;4521981;28;20113;-60
2021/10/23 06:23:18;;;;;;;7.17;4.70;;;;;;;;;;4536213;28;20090;-59
2021/10/23 06:25:29;;;;;;;7.53;4.73;;;;;;;;;;4537493;28;20029;-59
2021/10/23 06:27:39;;;;;;;7.47;4.67;;;;;;;;;;4534906;28;20045;-59
2021/10/23 06:29:50;;;;;;;7.47;4.97;;;;;;;;;;4532472;28;20065;-59
2021/10/23 06:32:00;;;;;;;8.20;4.83;;;;;;;;;;4536411;28;20145;-59
2021/10/23 06:34:11;;;;;;;7.53;5.23;;;;;;;;;;4534860;28;20037;-59
2021/10/23 06:36:21;;;;;;;7.97;5.40;;;;;;;;;;4534074;28;20736;-59
2021/10/23 06:38:31;;;;;;;8.27;5.23;;;;;;;;;;4533555;28;22276;-59
2021/10/23 06:40:42;;;;;;;8.43;5.43;;;;;;;;;;4537072;28;20083;-59
2021/10/23 06:42:52;;;;;;;8.13;4.97;;;;;;;;;;4536761;28;20049;-59
2021/10/23 06:45:03;;;;;;;9.90;6.43;;;;;;;;;;4518925;28;20046;-58
2021/10/23 06:47:13;;;;;;;9.57;6.17;;;;;;;;;;4535403;28;20065;-59
2021/10/23 06:49:24;;;;;;;8.30;6.00;;;;;;;;;;4536220;28;20077;-59
2021/10/23 06:51:36;;;;;;;9.80;5.70;;;;;;;;;;4538325;28;20144;-59
2021/10/23 06:53:46;;;;;;;6.75;4.68;;;;;;;;;;4527660;28;20025;-59
2021/10/23 06:55:56;;;;;;;7.30;4.93;;;;;;;;;;4538122;28;20037;-59
2021/10/23 06:58:07;;;;;;;7.70;5.00;;;;;;;;;;4537760;28;20521;-59
2021/10/23 07:00:17;;;;;;;7.00;4.37;;;;;;;;;;4538336;28;20061;-59
2021/10/23 07:02:28;;;;;;;7.70;4.80;;;;;;;;;;4536732;28;20381;-59
2021/10/23 07:04:38;;;;;;;7.70;4.67;;;;;;;;;;4534305;28;20033;-59
2021/10/23 07:06:48;;;;;;;8.03;5.37;;;;;;;;;;4540938;28;20044;-59
2021/10/23 07:08:59;;;;;;;7.50;5.23;;;;;;;;;;4537123;28;25058;-59
2021/10/23 07:11:09;;;;;;;8.27;5.13;;;;;;;;;;4534814;28;20127;-59
2021/10/23 07:13:20;;;;;;;6.40;3.83;;;;;;;;;;4525385;28;20211;-59
2021/10/23 07:15:30;;;;;;;7.27;4.43;;;;;;;;;;4535710;28;25696;-60
2021/10/23 07:17:42;;;;;;;7.90;4.90;;;;;;;;;;4537479;28;20116;-59
2021/10/23 07:19:52;;;;;;;;;;;;;;;;;;4526604;28;20586;-59
2021/10/23 07:22:03;;;;;;;6.93;4.35;;;;;;;;;;4537244;28;19923;-59
2021/10/23 07:24:17;;;;;;;8.43;4.87;;;;;;;;;;4537423;28;20036;-59
2021/10/23 07:26:28;;;;;;;7.72;4.97;;;;;;;;;;4535487;28;20033;-58
2021/10/23 07:28:38;;;;;;;8.05;4.95;;;;;;;;;;4530194;28;20108;-59
2021/10/23 07:30:49;;;;;;;8.73;5.37;;;;;;;;;;4536431;28;20112;-59
2021/10/23 07:32:59;;;;;;;8.13;5.40;;;;;;;;;;4535280;28;20604;-59
2021/10/23 07:35:10;;;;;;;7.83;4.80;;;;;;;;;;4529004;28;20516;-59
2021/10/23 07:37:20;;;;;;;8.02;5.13;;;;;;;;;;4537828;28;20080;-59
2021/10/23 07:39:32;;;;;;;6.80;4.60;;;;;;;;;;4538548;28;25855;-59
2021/10/23 07:41:43;;;;;;;6.97;4.50;;;;;;;;;;4539316;28;20143;-59
2021/10/23 07:43:53;;;;;;;7.43;4.87;;;;;;;;;;4524206;28;20123;-59
2021/10/23 07:46:04;;;;;;;7.43;4.77;;;;;;;;;;4535024;28;20036;-60
2021/10/23 07:48:16;;;;;;;6.50;4.37;;;;;;;;;;4523038;28;24781;-59
2021/10/23 07:50:26;;;;;;;8.93;4.80;;;;;;;;;;4538953;28;20029;-59
2021/10/23 07:52:38;;;;;;;7.73;4.13;;;;;;;;;;4537711;28;20037;-59
2021/10/23 07:54:48;;;;;;;;;;;;;;;;;;4525124;28;20025;-58
2021/10/23 07:56:59;;;;;;;7.47;3.97;;;;;;;;;;4536155;28;19921;-59
2021/10/23 07:59:10;;;;;;;7.03;4.82;;;;;;;;;;4535929;28;20334;-58
2021/10/23 08:01:21;;;;;;;8.57;4.43;;;;;;;;;;4534073;28;20060;-59
2021/10/23 08:03:31;;;;;;;7.47;4.23;;;;;;;;;;4535524;28;20497;-59
2021/10/23 08:05:41;;;;;;;7.50;4.33;;;;;;;;;;4535502;28;24637;-59
2021/10/23 08:07:53;;;;;;;6.80;4.20;;;;;;;;;;4535902;28;20185;-59
2021/10/23 08:10:05;;;;;;;7.68;4.32;;;;;;;;;;4522884;28;20037;-59
2021/10/23 08:12:15;;;;;;;6.50;4.05;;;;;;;;;;4538256;28;20033;-59
2021/10/23 08:14:26;;;;;;;7.37;4.10;;;;;;;;;;4533517;28;20036;-59
2021/10/23 08:16:36;;;;;;;6.57;3.90;;;;;;;;;;4538425;28;20021;-59
2021/10/23 08:18:46;;;;;;;6.13;3.90;;;;;;;;;;4535809;28;20063;-59
2021/10/23 08:20:57;;;;;;;6.37;4.30;;;;;;;;;;4537746;28;20041;-58
2021/10/23 08:23:08;;;;;;;5.20;3.63;;;;;;;;;;4536727;28;31166;-58
2021/10/23 08:25:18;;;;;;;6.23;3.87;;;;;;;;;;4524833;28;20036;-58
2021/10/23 08:27:28;;;;;;;6.73;4.00;;;;;;;;;;4537261;28;20033;-58
2021/10/23 08:29:39;;;;;;;5.70;3.70;;;;;;;;;;4535903;28;20068;-59
2021/10/23 08:31:49;;;;;;;6.37;3.83;;;;;;;;;;4536005;28;20064;-59
2021/10/23 08:34:01;;;;;;;7.23;4.20;;;;;;;;;;4526062;28;20116;-58
2021/10/23 08:36:11;;;;;;;6.10;4.22;;;;;;;;;;4536188;28;20042;-58
2021/10/23 08:38:21;;;;;;;7.60;4.13;;;;;;;;;;4538593;28;20322;-59
2021/10/23 08:40:33;;;;;;;7.03;3.90;;;;;;;;;;4534459;28;20029;-59
2021/10/23 08:42:44;;;;;;;6.63;4.40;;;;;;;;;;4535584;28;20037;-59
2021/10/23 08:44:56;;;;;;;6.32;3.78;;;;;;;;;;4535410;28;21174;-59
2021/10/23 08:47:06;;;;;;;5.78;3.90;;;;;;;;;;4523674;28;20040;-59
2021/10/23 08:49:17;;;;;;;5.80;3.90;;;;;;;;;;4504414;28;20513;-59
2021/10/23 08:51:30;;;;;;;8.17;4.50;;;;;;;;;;4536168;28;20036;-59
2021/10/23 08:53:40;;;;;;;6.47;4.13;;;;;;;;;;4534691;28;20304;-59
2021/10/23 08:55:51;;;;;;;7.17;4.17;;;;;;;;;;4535436;28;20033;-59
2021/10/23 08:58:02;;;;;;;7.68;4.35;;;;;;;;;;4537884;28;20037;-59
2021/10/23 09:00:13;;;;;;;6.67;4.20;;;;;;;;;;4535811;28;20032;-58
2021/10/23 09:02:24;;;;;;;7.05;4.15;;;;;;;;;;4522786;28;21128;-59
2021/10/23 09:04:34;;;;;;;7.25;4.25;;;;;;;;;;4535456;28;21049;-58
2021/10/23 09:06:45;;;;;;;8.00;4.63;;;;;;;;;;4536563;28;20033;-59
2021/10/23 09:09:09;;;;;;;7.53;4.63;;;;;;;;;;4520912;28;20029;-59
2021/10/23 09:11:37;;;;;;;7.00;4.60;;;;;;;;;;4535353;28;20059;-59
2021/10/23 09:13:48;;;;;;;6.72;4.43;;;;;;;;;;4524976;28;20042;-59
2021/10/23 09:15:58;;;;;;;8.45;4.75;;;;;;;;;;4534518;28;20037;-59
2021/10/23 09:18:09;;;;;;;7.57;4.40;;;;;;;;;;4525690;28;20043;-59
2021/10/23 09:20:21;;;;;;;9.77;5.32;;;;;;;;;;4532195;28;20045;-58
2021/10/23 09:22:34;;;;;;;7.97;4.75;;;;;;;;;;4536280;28;21278;-59
2021/10/23 09:24:44;;;;;;;8.35;5.47;;;;;;;;;;4521184;28;20161;-59
2021/10/23 09:26:55;;;;;;;8.73;4.90;;;;;;;;;;4534205;28;20118;-59
2021/10/23 09:29:19;;;;;;;8.63;5.50;;;;;;;;;;4534138;28;20121;-58
2021/10/23 09:31:30;;;;;;;8.60;5.53;;;;;;;;;;4535544;28;20609;-58
2021/10/23 09:33:40;;;;;;;10.23;5.80;;;;;;;;;;4519018;28;22160;-59
2021/10/23 09:35:52;;;;;;;8.93;5.47;;;;;;;;;;4535647;28;20120;-58
2021/10/23 09:38:02;;;;;;;8.52;5.43;;;;;;;;;;4536523;28;20040;-59
2021/10/23 09:40:18;;;;;;;8.93;5.87;;;;;;;;;;4525479;28;20406;-58
2021/10/23 09:42:28;;;;;;;8.25;5.32;;;;;;;;;;4517455;28;20053;-59
2021/10/23 09:45:04;;;;;;;8.90;5.40;;;;;;;;;;4533863;28;28864;-59
2021/10/23 09:47:17;;;;;;;8.20;5.45;;;;;;;;;;4528503;28;20049;-59
2021/10/23 09:49:27;;;;;;;7.85;5.13;;;;;;;;;;4537320;28;20594;-60
2021/10/23 09:51:39;;;;;;;9.33;5.30;;;;;;;;;;4534888;28;20035;-58
2021/10/23 09:53:57;;;;;;;8.70;5.55;;;;;;;;;;4535679;28;20034;-59
2021/10/23 09:56:11;;;;;;;8.43;5.00;;;;;;;;;;4536768;28;20041;-58
2021/10/23 09:58:23;;;;;;;8.93;4.78;;;;;;;;;;4537480;28;20180;-58
2021/10/23 10:00:33;;;;;;;7.18;4.80;;;;;;;;;;4534845;28;20100;-59
2021/10/23 10:02:45;;;;;;;7.60;4.50;;;;;;;;;;4534437;28;20059;-58
2021/10/23 10:04:55;;;;;;;8.18;4.50;;;;;;;;;;4533885;28;20048;-58
2021/10/23 10:07:06;;;;;;;7.73;4.80;;;;;;;;;;4523068;28;24123;-58
2021/10/23 10:09:20;;;;;;;8.50;4.67;;;;;;;;;;4532119;28;20041;-58
2021/10/23 10:11:31;;;;;;;7.40;4.32;;;;;;;;;;4518493;28;20041;-58
2021/10/23 10:13:42;;;;;;;7.70;4.30;;;;;;;;;;4534683;28;20624;-59
2021/10/23 10:16:02;;;;;;;7.47;4.60;;;;;;;;;;4524245;28;20032;-59
2021/10/23 10:18:17;;;;;;;8.32;4.50;;;;;;;;;;4536225;28;20036;-59
2021/10/23 10:20:29;;;;;;;8.48;4.72;;;;;;;;;;4535294;28;20037;-59
2021/10/23 10:22:52;;;;;;;7.18;4.65;;;;;;;;;;4520105;28;20076;-58
2021/10/23 10:25:22;;;;;;;7.10;4.25;;;;;;;;;;4518099;28;20631;-58
2021/10/23 10:27:53;;;;;;;7.63;4.40;;;;;;;;;;4540217;28;20037;-58
2021/10/23 10:30:19;;;;;;;7.45;3.90;;;;;;;;;;4513305;28;20049;-58
2021/10/23 10:32:40;;;;;;;7.53;4.20;;;;;;;;;;4522953;28;21094;-58
2021/10/23 10:35:43;;;;;;;8.25;4.40;;;;;;;;;;4506873;28;20794;-58
2021/10/23 10:42:55;;;;;;;5.20;3.25;;;;;;;;;;4519886;28;20034;-58
2021/10/23 10:45:46;;;;;;;8.02;3.92;;;;;;;;;;4514298;28;20038;-58
2021/10/23 10:48:16;;;;;;;6.53;3.28;;;;;;;;;;4538310;28;20584;-58
2021/10/23 10:50:40;;;;;;;5.72;3.40;;;;;;;;;;4539211;28;20692;-59
2021/10/23 10:52:51;;;;;;;5.20;2.92;;;;;;;;;;4537053;28;20655;-58
2021/10/23 10:55:12;;;;;;;5.57;3.40;;;;;;;;;;4538665;28;20033;-58
2021/10/23 10:57:27;;;;;;;6.55;3.90;;;;;;;;;;4529178;28;20032;-59
2021/10/23 10:59:51;;;;;;;5.30;3.17;;;;;;;;;;4524250;28;20803;-58
2021/10/23 11:02:07;;;;;;;6.43;3.50;;;;;;;;;;4522137;28;20033;-58
2021/10/23 11:04:17;;;;;;;5.63;3.30;;;;;;;;;;4540436;28;20041;-59
2021/10/23 11:06:28;;;;;;;4.83;3.00;;;;;;;;;;4522927;28;20042;-58
2021/10/23 11:08:38;;;;;;;6.75;3.10;;;;;;;;;;4536517;28;20037;-59
2021/10/23 11:10:56;;;;;;;5.63;3.00;;;;;;;;;;4537995;28;20533;-59
2021/10/23 11:13:43;;;;;;;6.50;3.30;;;;;;;;;;4537712;28;20969;-59
2021/10/23 11:15:54;;;;;;;6.57;4.00;;;;;;;;;;4482696;28;21100;-59
2021/10/23 11:18:05;;;;;;;5.68;3.17;;;;;;;;;;4518390;28;20052;-59
2021/10/23 11:20:16;;;;;;;4.68;2.53;;;;;;;;;;4538572;28;20037;-59
2021/10/23 11:22:34;;;;;;;5.73;2.80;;;;;;;;;;4526857;28;20049;-59
2021/10/23 11:24:49;;;;;;;6.68;2.72;;;;;;;;;;4540516;28;20694;-59
2021/10/23 11:26:59;;;;;;;5.43;2.60;;;;;;;;;;4538353;28;20521;-59
2021/10/23 11:29:17;;;;;;;5.03;2.50;;;;;;;;;;4538004;28;20393;-59
2021/10/23 11:31:28;;;;;;;5.53;2.45;;;;;;;;;;4502277;28;20045;-59
2021/10/23 11:33:38;;;;;;;6.23;2.67;;;;;;;;;;4534751;28;20091;-59
2021/10/23 11:35:51;;;;;;;5.13;2.47;;;;;;;;;;4539863;28;20827;-59
2021/10/23 11:38:03;;;;;;;5.25;2.58;;;;;;;;;;4521684;28;20088;-58
2021/10/23 11:40:14;;;;;;;3.88;2.30;;;;;;;;;;4521143;28;20266;-59
2021/10/23 11:42:28;;;;;;;5.27;2.40;;;;;;;;;;4538049;28;20080;-59
2021/10/23 11:44:39;;;;;;;4.18;2.13;;;;;;;;;;4520801;28;20041;-59
2021/10/23 11:46:56;;;;;;;4.47;2.20;;;;;;;;;;4536950;28;20033;-58
2021/10/23 11:49:06;;;;;;;4.93;2.22;;;;;;;;;;4538458;28;20036;-59
2021/10/23 11:51:18;;;;;;;4.17;2.10;;;;;;;;;;4538627;28;22614;-58
2021/10/23 11:53:31;;;;;;;;;;;;;;;;;;4535680;28;20053;-59
2021/10/23 11:55:47;;;;;;;3.20;1.70;;;;;;;;;;4536370;28;20003;-58
2021/10/23 11:58:03;;;;;;;5.32;1.95;;;;;;;;;;4533152;28;20037;-58
2021/10/23 12:00:15;;;;;;;4.32;2.20;;;;;;;;;;4536055;28;20101;-59
2021/10/23 12:02:39;;;;;;;3.55;1.92;;;;;;;;;;4521296;28;20050;-59
2021/10/23 12:04:49;;;;;;;3.92;1.88;;;;;;;;;;4537001;28;20040;-60
2021/10/23 12:06:59;;;;;;;4.10;1.70;;;;;;;;;;4534371;28;20036;-59
2021/10/23 12:09:20;;;;;;;3.57;1.60;;;;;;;;;;4536126;28;20390;-58
2021/10/23 12:11:30;;;;;;;3.42;1.60;;;;;;;;;;4536266;28;20029;-59
2021/10/23 12:13:59;;;;;;;4.13;1.70;;;;;;;;;;4535286;28;20045;-58
2021/10/23 12:16:10;;;;;;;2.90;1.45;;;;;;;;;;4536856;28;20033;-60
2021/10/23 12:18:34;;;;;;;4.80;1.80;;;;;;;;;;4539249;28;20021;-58
2021/10/23 12:20:45;;;;;;;3.63;1.80;;;;;;;;;;4534955;28;20263;-58
2021/10/23 12:22:55;;;;;;;3.80;2.00;;;;;;;;;;4522905;28;20928;-58
2021/10/23 12:25:10;;;;;;;5.43;2.53;;;;;;;;;;4535654;28;31442;-58
2021/10/23 12:27:26;;;;;;;6.05;3.20;;;;;;;;;;4536452;28;20032;-58
2021/10/23 12:29:44;;;;;;;8.75;4.30;;;;;;;;;;4537217;28;20072;-58
2021/10/23 12:31:57;;;;;;;4.63;2.03;;;;;;;;;;4536962;28;20564;-59
2021/10/23 12:34:07;;;;;;;3.33;1.45;;;;;;;;;;4533554;28;20669;-58
2021/10/23 12:36:18;;;;;;;3.97;2.10;;;;;;;;;;4521599;28;25127;-58
2021/10/23 12:38:29;;;;;;;2.77;1.30;;;;;;;;;;4539583;28;23790;-59
2021/10/23 12:40:40;;;;;;;4.10;1.80;;;;;;;;;;4523402;28;20041;-59
2021/10/23 12:42:58;;;;;;;4.95;1.50;;;;;;;;;;4536005;28;20576;-59
2021/10/23 12:45:11;;;;;;;2.65;1.45;;;;;;;;;;4536000;28;20033;-59
2021/10/23 12:47:21;;;;;;;3.38;1.30;;;;;;;;;;4525169;28;20087;-59
2021/10/23 12:49:32;;;;;;;4.03;1.50;;;;;;;;;;4532230;28;35788;-60
2021/10/23 12:51:43;;;;;;;2.43;1.33;;;;;;;;;;4534906;28;20041;-60
2021/10/23 12:53:53;;;;;;;4.28;1.33;;;;;;;;;;4535386;28;20029;-60
2021/10/23 12:56:04;;;;;;;3.40;1.60;;;;;;;;;;4534837;28;20040;-60
2021/10/23 12:58:14;;;;;;;3.77;1.77;;;;;;;;;;4536466;28;20094;-60
2021/10/23 13:00:25;;;;;;;3.87;1.80;;;;;;;;;;4526785;28;20041;-59
2021/10/23 13:02:36;;;;;;;4.83;2.13;;;;;;;;;;4530553;28;20048;-60
2021/10/23 13:04:46;;;;;;;3.65;1.75;;;;;;;;;;4535188;28;20033;-60
2021/10/23 13:06:57;;;;;;;3.60;1.60;;;;;;;;;;4523819;28;20072;-61
2021/10/23 13:09:07;;;;;;;2.50;1.50;;;;;;;;;;4532621;28;22230;-59
2021/10/23 13:11:18;;;;;;;3.20;1.50;;;;;;;;;;4537198;28;20036;-60
2021/10/23 13:13:30;;;;;;;3.53;1.50;;;;;;;;;;4536496;28;20485;-60
2021/10/23 13:15:40;;;;;;;;;;;;;;;;;;4537318;28;20552;-60
2021/10/23 13:17:50;;;;;;;3.90;2.03;;;;;;;;;;4520981;28;19916;-59